Flight Track Log - Related Links

Times and Time Zones

All times are in EDT time to prevent confusion due to time zone crossing. See the SKW6345 flight status page for this flight to view local times or setup timezone preferences in your user account.

Time Position Orientation Groundspeed Altitude Reporting Facility
EDT Latitude Longitude Course Direction KTS MPH feet Rate Location/Type
Wed 11:25:29 AM 37.6667 -122.3333 38° Northeast 185 213 1,900  Level Northern TRACON
Wed 11:26:29 AM 37.7000 -122.2667 58° Northeast 244 281 4,100 2,350 Climbing Northern TRACON
Wed 11:27:00 AM 37.6302 -122.4130 120° Southeast  Level FlightAware
Wed 11:27:29 AM 37.7500 -122.2000 47° Northeast 295 339 6,600  Level Northern TRACON
Wed 11:28:00 AM 37.6890 -122.2944 38° Northeast  Level FlightAware
Wed 11:28:29 AM 37.8167 -122.1333 38° Northeast 287 330 9,000  Level Northern TRACON
Wed 11:29:00 AM 37.7930 -122.1904 38° Northeast  Level FlightAware
Wed 11:29:29 AM 37.8833 -122.0833 31° Northeast 309 356 11,100  Level Northern TRACON
Wed 11:30:00 AM 37.8970 -122.0863 38° Northeast  Level FlightAware
Wed 11:30:16 AM 37.9314 -122.0306 41° Northeast 308 354 12,400  Level Oakland Center
Wed 11:31:18 AM 38.0022 -121.9639 37° Northeast 317 365 14,300 1,756 Climbing Oakland Center
Wed 11:32:19 AM 38.0761 -121.8956 36° Northeast 329 379 16,000 1,623 Climbing Oakland Center
Wed 11:33:20 AM 38.1533 -121.8244 36° Northeast 341 392 17,600 1,610 Climbing Oakland Center
Wed 11:34:22 AM 38.2467 -121.7367 36° Northeast 348 400 19,300 1,512 Climbing Oakland Center
Wed 11:35:23 AM 38.3272 -121.6619 36° Northeast 357 411 20,700 984 Climbing Oakland Center
Wed 11:36:24 AM 38.4108 -121.5842 36° Northeast 371 427 21,300 732 Climbing Oakland Center
Wed 11:37:26 AM 38.4961 -121.5153 32° Northeast 387 445 22,200 976 Climbing Oakland Center
Wed 11:38:27 AM 38.5911 -121.4369 33° Northeast 382 440 23,300 1,033 Climbing Oakland Center
Wed 11:39:28 AM 38.6792 -121.3639 33° Northeast 379 436 24,300 976 Climbing Oakland Center
Wed 11:40:30 AM 38.7647 -121.2908 34° Northeast 374 430 25,300 1,024 Climbing Oakland Center
Wed 11:41:31 AM 38.8531 -121.2175 33° Northeast 372 428 26,400 1,033 Climbing Oakland Center
Wed 11:42:32 AM 38.9400 -121.1461 33° Northeast 371 427 27,400 1,073 Climbing Oakland Center
Wed 11:43:34 AM 39.0469 -121.0547 34° Northeast 381 438 28,600 1,073 Climbing Oakland Center
Wed 11:44:35 AM 39.1367 -120.9789 33° Northeast 385 443 29,600 787 Climbing Oakland Center
Wed 11:45:36 AM 39.2292 -120.9011 33° Northeast 392 451 30,200 585 Climbing Oakland Center
Wed 11:46:38 AM 39.3228 -120.8194 34° Northeast 403 464 30,800 390 Climbing Oakland Center
Wed 11:47:39 AM 39.4203 -120.7369 33° Northeast 414 476 31,000 98 Climbing Oakland Center
Wed 11:48:41 AM 39.5206 -120.6508 34° Northeast 426 490 31,000  Level Oakland Center
Wed 11:49:42 AM 39.6206 -120.5650 33° Northeast 431 496 31,000  Level Oakland Center
Wed 11:50:43 AM 39.7167 -120.4817 34° Northeast 421 484 31,000 98 Level Oakland Center
Wed 11:51:45 AM 39.8119 -120.4017 33° Northeast 412 474 31,200 341 Climbing Oakland Center
Wed 11:52:46 AM 39.9047 -120.3200 34° Northeast 404 465 31,700 390 Climbing Oakland Center
Wed 11:53:48 AM 40.0181 -120.2228 33° Northeast 405 466 32,000 293 Climbing Oakland Center
Wed 11:54:49 AM 40.1028 -120.1492 34° Northeast 411 473 32,300 443 Climbing Oakland Center
Wed 11:55:50 AM 40.1967 -120.0667 34° Northeast 407 468 32,900 344 Climbing Oakland Center
Wed 11:56:51 AM 40.2897 -119.9847 34° Northeast 403 464 33,000 48 Climbing Oakland Center
Wed 11:57:54 AM 40.4053 -119.8836 34° Northeast 414 476 33,000  Level Oakland Center
Wed 11:58:54 AM 40.4989 -119.8011 34° Northeast 408 470 33,000  Level Oakland Center
Wed 11:59:55 AM 40.5764 -119.7322 34° Northeast 404 465 33,000  Level Oakland Center
Wed 12:00:57 PM 40.6892 -119.6311 34° Northeast 409 471 33,000  Level Oakland Center
Wed 12:01:58 PM 40.7831 -119.5467 34° Northeast 411 473 33,000  Level Oakland Center
Wed 12:03:00 PM 40.8814 -119.4583 34° Northeast 413 475 33,000  Level Oakland Center
Wed 12:04:01 PM 40.9728 -119.3764 34° Northeast 413 475 33,000  Level Oakland Center
Wed 12:04:54 PM 41.0636 -119.2947 34° Northeast 412 474 33,000  Level Salt Center
Wed 12:05:56 PM 41.1561 -119.2111 34° Northeast 416 479 33,000  Level Salt Center
Wed 12:06:58 PM 41.2617 -119.1150 34° Northeast 413 475 33,000  Level Salt Center
Wed 12:08:00 PM 41.3528 -119.0308 35° Northeast 414 476 33,000  Level Salt Center
Wed 12:09:02 PM 41.4425 -118.9489 34° Northeast 410 472 33,000  Level Salt Center
Wed 12:10:04 PM 41.5483 -118.8525 34° Northeast 410 472 33,000  Level Salt Center
Wed 12:11:06 PM 41.6383 -118.7686 35° Northeast 412 474 33,000  Level Salt Center
Wed 12:12:08 PM 41.7425 -118.6722 35° Northeast 408 470 33,000  Level Salt Center
Wed 12:13:10 PM 41.8325 -118.5892 35° Northeast 408 470 33,000  Level Salt Center
Wed 12:14:12 PM 41.9361 -118.4914 35° Northeast 407 468 33,000  Level Salt Center
Wed 12:15:14 PM 42.0256 -118.4075 35° Northeast 409 471 33,000  Level Salt Center
Wed 12:16:16 PM 42.1289 -118.3097 35° Northeast 406 467 33,000  Level Salt Center
Wed 12:17:18 PM 42.2189 -118.2253 35° Northeast 408 470 33,000  Level Salt Center
Wed 12:18:20 PM 42.3217 -118.1228 36° Northeast 409 471 33,000  Level Salt Center
Wed 12:19:22 PM 42.4083 -118.0383 36° Northeast 402 463 33,000  Level Salt Center
Wed 12:20:24 PM 42.5114 -117.9406 35° Northeast 404 465 33,000  Level Salt Center
Wed 12:21:26 PM 42.5972 -117.8514 37° Northeast 407 468 33,000  Level Salt Center
Wed 12:22:28 PM 42.6592 -117.7336 54° Northeast 401 461 33,000  Level Salt Center
Wed 12:23:30 PM 42.7342 -117.5972 53° Northeast 402 463 33,000  Level Salt Center
Wed 12:24:32 PM 42.7989 -117.4822 52° Northeast 399 459 33,000  Level Salt Center
Wed 12:25:35 PM 42.8717 -117.3447 54° Northeast 401 461 33,000  Level Salt Center
Wed 12:26:37 PM 42.9344 -117.2283 54° Northeast 400 460 33,000  Level Salt Center
Wed 12:27:39 PM 43.0078 -117.0917 54° Northeast 400 460 33,000  Level Salt Center
Wed 12:28:41 PM 43.0706 -116.9750 54° Northeast 399 459 33,000  Level Salt Center
Wed 12:29:43 PM 43.1436 -116.8378 54° Northeast 398 458 33,000  Level Salt Center
Wed 12:30:45 PM 43.2056 -116.7200 54° Northeast 399 459 33,000  Level Salt Center
Wed 12:31:47 PM 43.2783 -116.5817 54° Northeast 400 460 33,000  Level Salt Center
Wed 12:32:49 PM 43.3403 -116.4636 54° Northeast 400 460 33,000  Level Salt Center
Wed 12:33:51 PM 43.4119 -116.3247 55° Northeast 400 460 33,000  Level Salt Center
Wed 12:34:53 PM 43.4742 -116.2067 54° Northeast 399 459 33,000  Level Salt Center
Wed 12:35:55 PM 43.5456 -116.0667 55° Northeast 400 460 33,000  Level Salt Center
Wed 12:36:57 PM 43.6081 -115.9472 54° Northeast 402 463 33,000  Level Salt Center
Wed 12:37:59 PM 43.6789 -115.8067 55° Northeast 401 461 33,000  Level Salt Center
Wed 12:39:01 PM 43.7406 -115.6858 55° Northeast 402 463 33,000  Level Salt Center
Wed 12:40:03 PM 43.8117 -115.5442 55° Northeast 405 466 33,000  Level Salt Center
Wed 12:41:05 PM 43.8731 -115.4242 55° Northeast 400 460 33,000  Level Salt Center
Wed 12:42:07 PM 43.9442 -115.2814 55° Northeast 404 465 33,000  Level Salt Center
Wed 12:43:09 PM 44.0053 -115.1597 55° Northeast 403 464 33,000  Level Salt Center
Wed 12:44:11 PM 44.0767 -115.0172 55° Northeast 403 464 33,000  Level Salt Center
Wed 12:45:13 PM 44.1372 -114.8928 56° Northeast 406 467 33,000  Level Salt Center
Wed 12:46:15 PM 44.1986 -114.7706 55° Northeast 405 466 33,000  Level Salt Center
Wed 12:47:17 PM 44.2689 -114.6261 56° Northeast 403 464 33,000  Level Salt Center
Wed 12:48:19 PM 44.3292 -114.5025 56° Northeast 404 465 33,000  Level Salt Center
Wed 12:49:21 PM 44.4017 -114.3569 55° Northeast 408 470 33,000  Level Salt Center
Wed 12:50:23 PM 44.4614 -114.2303 57° Northeast 408 470 33,000  Level Salt Center
Wed 12:51:26 PM 44.5331 -114.0839 55° Northeast 409 471 33,000  Level Salt Center
Wed 12:52:28 PM 44.5928 -113.9561 57° Northeast 411 473 33,000  Level Salt Center
Wed 12:53:30 PM 44.6633 -113.8022 57° Northeast 405 466 33,000  Level Salt Center
Wed 12:54:32 PM 44.7242 -113.6742 56° Northeast 410 472 33,000  Level Salt Center
Wed 12:55:34 PM 44.7869 -113.5453 56° Northeast 415 478 33,000  Level Salt Center
Wed 12:56:36 PM 44.8553 -113.3969 57° Northeast 408 470 33,000  Level Salt Center
Wed 12:57:38 PM 44.9142 -113.2700 57° Northeast 404 465 33,000  Level Salt Center
Wed 12:58:40 PM 44.9853 -113.1206 56° Northeast 409 471 33,000 -97 Level Salt Center
Wed 12:59:42 PM 45.0444 -112.9933 57° Northeast 407 468 32,800 -726 Descending Salt Center
Wed 01:00:44 PM 45.1139 -112.8419 57° Northeast 411 473 31,500 -1,355 Descending Salt Center
Wed 01:01:46 PM 45.1717 -112.7158 57° Northeast 400 460 30,000 -1,548 Descending Salt Center
Wed 01:02:48 PM 45.2364 -112.5750 57° Northeast 384 442 28,300 -1,597 Descending Salt Center
Wed 01:03:50 PM 45.2856 -112.4558 60° Northeast 373 429 26,700 -1,694 Descending Salt Center
Wed 01:04:52 PM 45.3389 -112.3178 61° Northeast 360 414 24,800 -1,742 Descending Salt Center
Wed 01:05:54 PM 45.3847 -112.2028 60° Northeast 351 404 23,100 -1,645 Descending Salt Center
Wed 01:06:56 PM 45.4300 -112.0836 62° Northeast 343 395 21,400 -1,645 Descending Salt Center
Wed 01:07:58 PM 45.4747 -111.9678 61° Northeast 336 387 19,700 -1,645 Descending Salt Center
Wed 01:09:00 PM 45.5178 -111.8556 61° Northeast 328 377 18,000 -1,742 Descending Salt Center
Wed 01:10:02 PM 45.5686 -111.7228 61° Northeast 321 369 16,100 -1,742 Descending Salt Center
Wed 01:12:06 PM 45.6489 -111.5136 61° Northeast 300 345 12,600 -1,677 Descending Salt Center
Wed 01:13:08 PM 45.7014 -111.4342 47° Northeast 293 337 10,900 -2,032 Descending Salt Center
Wed 01:14:10 PM 45.7781 -111.4261 North 284 327 8,400 -1,935 Descending Salt Center
Wed 01:15:12 PM 45.8464 -111.4564 343° North 283 326 6,900 -774 Descending Salt Center
Wed 01:16:14 PM 45.8883 -111.3844 50° Northeast 249 287 6,800 -48 Descending Salt Center
Wed 01:17:16 PM 45.8953 -111.3172 82° East 219 252 6,800 -194 Level Salt Center
Wed 01:18:18 PM 45.8539 -111.2594 136° Southeast 185 213 6,400 -629 Descending Salt Center
Wed 01:19:20 PM 45.8231 -111.2158 135° Southeast 172 198 5,500 -823 Descending Salt Center
Wed 01:20:22 PM 45.7942 -111.1753 136° Southeast 158 182 4,700 -774 Descending Salt Center

Login

Don't have an account? Register now (free) for customized features, flight alerts, and more!